Time;durP1;ratioP1;P1;durP2;ratioP2;P2;SDS_P1;SDS_P2;PMS_P1;PMS_P2;Temp;Humidity;BMP_temperature;BMP_pressure;BME280_temperature;BME280_humidity;BME280_pressure;Samples;Min_cycle;Max_cycle;Signal;HPM_P1;HPM_P2
2023/06/13 00:01:48;;;;;;;16.13;14.93;;;23.00;99.90;;;;;;5047902;28;20053;-76
2023/06/13 00:04:21;;;;;;;15.98;14.77;;;22.90;99.90;;;;;;5032604;28;20429;-76
2023/06/13 00:06:48;;;;;;;16.15;14.85;;;22.80;99.90;;;;;;5032188;28;20379;-77
2023/06/13 00:09:17;;;;;;;15.15;14.05;;;22.80;99.90;;;;;;5033329;28;20037;-76
2023/06/13 00:11:49;;;;;;;15.40;14.20;;;22.80;99.90;;;;;;5032176;28;20041;-76
2023/06/13 00:14:16;;;;;;;16.13;14.45;;;22.70;99.90;;;;;;5016017;28;20037;-76
2023/06/13 00:16:43;;;;;;;14.82;13.82;;;22.70;99.90;;;;;;5014734;28;20030;-76
2023/06/13 00:19:13;;;;;;;14.82;13.75;;;22.50;99.90;;;;;;5032280;28;20028;-76
2023/06/13 00:21:39;;;;;;;14.35;13.13;;;22.50;99.90;;;;;;5015549;28;20029;-76
2023/06/13 00:24:05;;;;;;;13.07;11.90;;;22.50;99.90;;;;;;5014871;28;20037;-76
2023/06/13 00:26:31;;;;;;;13.23;12.15;;;22.40;99.90;;;;;;5014863;28;20490;-76
2023/06/13 00:28:57;;;;;;;13.30;11.98;;;22.40;99.90;;;;;;5048476;28;20052;-76
2023/06/13 00:31:28;;;;;;;14.15;12.88;;;22.50;99.90;;;;;;5031215;28;20056;-76
2023/06/13 00:33:56;;;;;;;14.70;12.43;;;22.60;99.90;;;;;;5048050;28;20029;-76
2023/06/13 00:36:24;;;;;;;15.20;13.18;;;22.60;99.90;;;;;;5031294;28;20041;-76
2023/06/13 00:38:57;;;;;;;13.65;12.38;;;22.60;99.90;;;;;;5032951;28;20044;-76
2023/06/13 00:41:23;;;;;;;13.77;12.10;;;22.70;99.90;;;;;;5032779;28;20040;-77
2023/06/13 00:43:50;;;;;;;11.73;10.63;;;22.70;99.90;;;;;;5032779;28;20041;-76
2023/06/13 00:46:25;;;;;;;11.63;10.25;;;22.70;99.90;;;;;;5031075;28;20482;-76
2023/06/13 00:48:51;;;;;;;11.98;9.45;;;22.50;99.90;;;;;;5049352;28;20045;-76
2023/06/13 00:51:20;;;;;;;9.40;8.43;;;22.50;99.90;;;;;;5042933;28;20356;-76
2023/06/13 00:53:46;;;;;;;10.55;8.65;;;22.40;99.90;;;;;;5032633;28;20029;-76
2023/06/13 00:56:12;;;;;;;9.13;8.32;;;22.40;99.90;;;;;;5031519;28;20044;-76
2023/06/13 00:58:38;;;;;;;11.23;10.23;;;22.30;99.90;;;;;;5032797;28;20045;-76
2023/06/13 01:01:05;;;;;;;11.70;9.65;;;22.30;99.90;;;;;;5013994;28;20025;-76
2023/06/13 01:03:34;;;;;;;11.00;9.77;;;22.30;99.90;;;;;;5014986;28;20056;-76
2023/06/13 01:06:00;;;;;;;9.90;8.55;;;22.20;99.90;;;;;;5031405;28;20049;-76
2023/06/13 01:08:27;;;;;;;9.98;8.98;;;22.20;99.90;;;;;;5030844;28;20041;-76
2023/06/13 01:11:18;;;;;;;9.65;8.45;;;22.00;99.90;;;;;;5014784;28;20405;-75
2023/06/13 01:14:08;;;;;;;8.73;7.82;;;22.10;99.90;;;;;;5017433;28;20044;-76
2023/06/13 01:16:45;;;;;;;8.48;7.72;;;22.20;99.90;;;;;;5013099;28;20025;-76
2023/06/13 01:19:40;;;;;;;8.52;7.72;;;22.20;99.90;;;;;;5032466;28;20044;-76
2023/06/13 01:22:12;;;;;;;7.70;7.00;;;22.20;99.90;;;;;;5028727;28;20056;-76
2023/06/13 01:25:00;;;;;;;7.30;6.63;;;22.10;99.90;;;;;;5015151;28;20052;-76
2023/06/13 01:27:27;;;;;;;7.50;6.80;;;22.10;99.90;;;;;;5016710;28;20033;-76
2023/06/13 01:29:53;;;;;;;7.85;7.15;;;22.10;99.90;;;;;;5031110;28;20068;-76
2023/06/13 01:32:20;;;;;;;7.65;6.95;;;21.80;99.90;;;;;;5030507;28;20398;-76
2023/06/13 01:34:46;;;;;;;7.30;6.63;;;21.70;99.90;;;;;;5031155;28;20394;-75
2023/06/13 01:37:13;;;;;;;7.45;6.75;;;21.80;99.90;;;;;;5030441;28;20029;-75
2023/06/13 01:39:39;;;;;;;7.07;6.38;;;21.80;99.90;;;;;;5063982;28;20074;-76
2023/06/13 01:42:06;;;;;;;6.80;5.93;;;21.70;99.90;;;;;;5032055;28;20044;-76
2023/06/13 01:44:32;;;;;;;6.72;6.07;;;21.70;99.90;;;;;;5031088;28;20390;-76
2023/06/13 01:47:09;;;;;;;6.50;5.97;;;21.60;99.90;;;;;;5031299;28;20060;-75
2023/06/13 01:49:55;;;;;;;7.80;7.13;;;21.60;99.90;;;;;;5050759;28;20037;-75
2023/06/13 01:52:54;;;;;;;10.85;7.07;;;21.50;99.90;;;;;;5031708;28;20041;-76
2023/06/13 01:55:30;;;;;;;7.70;6.75;;;21.40;99.90;;;;;;4970708;28;20407;-76
2023/06/13 01:58:10;;;;;;;8.15;7.22;;;21.50;99.90;;;;;;4955427;28;20031;-76
2023/06/13 02:00:37;;;;;;;9.68;7.00;;;21.50;99.90;;;;;;4954175;28;20046;-78
2023/06/13 02:03:03;;;;;;;8.65;7.43;;;21.30;99.90;;;;;;4956345;28;20462;-78
2023/06/13 02:05:30;;;;;;;7.82;7.20;;;21.30;99.90;;;;;;4947496;28;20043;-78
2023/06/13 02:07:56;;;;;;;8.95;8.15;;;21.30;99.90;;;;;;4952866;28;20057;-78
2023/06/13 02:10:23;;;;;;;9.95;9.15;;;21.20;99.90;;;;;;4969170;28;20057;-78
2023/06/13 02:12:49;;;;;;;10.43;9.38;;;21.10;99.90;;;;;;4970744;28;20039;-78
2023/06/13 02:15:16;;;;;;;10.15;9.35;;;21.20;99.90;;;;;;4938008;28;20456;-78
2023/06/13 02:17:42;;;;;;;10.85;10.05;;;21.10;99.90;;;;;;4973331;28;20027;-78
2023/06/13 02:20:09;;;;;;;9.50;8.45;;;21.20;99.90;;;;;;4956794;28;20407;-78
2023/06/13 02:22:35;;;;;;;9.35;8.55;;;21.20;99.90;;;;;;4973264;28;20480;-77
2023/06/13 02:25:03;;;;;;;9.43;8.65;;;21.30;99.90;;;;;;4940890;28;20042;-77
2023/06/13 02:27:29;;;;;;;9.07;8.27;;;21.30;99.90;;;;;;4972929;28;20467;-78
2023/06/13 02:29:55;;;;;;;9.38;8.57;;;21.30;99.90;;;;;;4957149;28;20039;-78
2023/06/13 02:32:22;;;;;;;9.73;8.82;;;21.20;99.90;;;;;;4997044;28;20038;-78
2023/06/13 02:34:49;;;;;;;9.40;8.60;;;21.30;99.90;;;;;;5029123;28;20038;-78
2023/06/13 02:37:15;;;;;;;8.73;8.00;;;21.20;99.90;;;;;;5035323;28;20040;-78
2023/06/13 02:39:41;;;;;;;8.63;7.95;;;21.30;99.90;;;;;;5017689;28;20033;-78
2023/06/13 02:42:07;;;;;;;9.00;8.20;;;21.30;99.90;;;;;;5046605;28;20033;-78
2023/06/13 02:44:33;;;;;;;8.13;7.43;;;21.20;99.90;;;;;;5035266;28;20046;-78
2023/06/13 02:46:59;;;;;;;8.88;7.85;;;21.30;99.90;;;;;;5050866;28;20068;-77
2023/06/13 02:49:25;;;;;;;7.88;7.18;;;21.20;99.90;;;;;;5053460;28;20041;-78
2023/06/13 02:51:52;;;;;;;10.10;9.18;;;21.10;99.90;;;;;;5039301;28;20026;-78
2023/06/13 02:54:18;;;;;;;8.60;7.80;;;21.10;99.90;;;;;;5035062;28;20040;-78
2023/06/13 02:56:44;;;;;;;8.98;7.85;;;21.20;99.90;;;;;;5033563;28;20387;-78
2023/06/13 02:59:10;;;;;;;10.13;8.02;;;21.10;99.90;;;;;;5034924;28;20044;-78
2023/06/13 03:01:36;;;;;;;8.70;8.05;;;21.10;99.90;;;;;;5034128;28;20030;-78
2023/06/13 03:04:02;;;;;;;12.40;7.95;;;21.20;99.90;;;;;;5016643;28;20044;-78
2023/06/13 03:06:31;;;;;;;9.25;8.35;;;21.20;99.90;;;;;;5033411;28;20026;-78
2023/06/13 03:09:00;;;;;;;9.93;8.93;;;21.20;99.90;;;;;;5034617;28;20038;-76
2023/06/13 03:11:26;;;;;;;9.50;8.25;;;21.30;99.90;;;;;;5033179;28;20037;-76
2023/06/13 03:13:52;;;;;;;9.13;8.30;;;21.30;99.90;;;;;;5033531;28;20033;-76
2023/06/13 03:16:18;;;;;;;11.60;10.65;;;21.40;99.90;;;;;;5032778;28;20033;-75
2023/06/13 03:18:44;;;;;;;10.63;8.13;;;21.40;99.90;;;;;;5033260;28;20040;-76
2023/06/13 03:21:10;;;;;;;9.30;7.25;;;21.30;99.90;;;;;;5033014;28;20036;-76
2023/06/13 03:23:37;;;;;;;9.50;8.80;;;21.30;99.90;;;;;;5033340;28;20034;-76
2023/06/13 03:26:03;;;;;;;10.75;9.95;;;21.40;99.90;;;;;;5034091;28;20033;-76
2023/06/13 03:28:29;;;;;;;9.93;9.13;;;21.40;99.90;;;;;;5034313;28;20482;-76
2023/06/13 03:30:57;;;;;;;9.85;9.07;;;21.30;99.90;;;;;;5048981;28;20038;-75
2023/06/13 03:33:23;;;;;;;8.10;7.50;;;21.30;99.90;;;;;;5034004;28;20036;-76
2023/06/13 03:35:50;;;;;;;6.80;6.13;;;21.40;99.90;;;;;;5046717;28;20036;-76
2023/06/13 03:38:16;;;;;;;7.97;7.28;;;21.30;99.90;;;;;;5034412;28;20029;-76
2023/06/13 03:40:42;;;;;;;6.57;5.97;;;21.20;99.90;;;;;;5032675;28;20542;-76
2023/06/13 03:43:09;;;;;;;6.22;5.72;;;21.10;99.90;;;;;;5034182;28;20037;-76
2023/06/13 03:45:35;;;;;;;6.57;6.00;;;21.10;99.90;;;;;;5032469;28;20041;-76
2023/06/13 03:48:02;;;;;;;6.65;6.05;;;21.10;99.90;;;;;;5043158;28;20045;-76
2023/06/13 03:50:28;;;;;;;7.50;6.68;;;21.10;99.90;;;;;;5052652;28;20036;-76
2023/06/13 03:52:54;;;;;;;6.38;5.70;;;21.20;99.90;;;;;;5033245;28;20049;-76
2023/06/13 03:55:21;;;;;;;6.18;5.57;;;21.10;99.90;;;;;;5032348;28;20029;-76
2023/06/13 03:57:47;;;;;;;5.82;5.22;;;21.10;99.90;;;;;;5016217;28;20037;-76
2023/06/13 04:00:13;;;;;;;7.35;5.55;;;21.00;99.90;;;;;;5031515;28;20378;-73
2023/06/13 04:02:40;;;;;;;6.00;5.30;;;20.70;99.90;;;;;;5033790;28;20036;-76
2023/06/13 04:05:07;;;;;;;8.23;5.28;;;20.70;99.90;;;;;;5032511;28;20046;-76
2023/06/13 04:07:33;;;;;;;9.13;5.60;;;20.60;99.90;;;;;;5033356;28;20034;-76
2023/06/13 04:10:01;;;;;;;6.13;5.35;;;20.50;99.90;;;;;;5033598;28;20033;-76
2023/06/13 04:12:31;;;;;;;6.07;5.45;;;20.40;99.90;;;;;;5033221;28;20039;-75
2023/06/13 04:14:57;;;;;;;5.85;5.25;;;20.40;99.90;;;;;;5032595;28;20052;-75
2023/06/13 04:17:23;;;;;;;6.97;5.75;;;20.30;99.90;;;;;;5031764;28;20040;-76
2023/06/13 04:19:49;;;;;;;8.38;5.30;;;20.40;99.90;;;;;;5032333;28;20044;-76
2023/06/13 04:22:19;;;;;;;6.03;5.50;;;20.30;99.90;;;;;;5032159;28;20025;-76
2023/06/13 04:24:46;;;;;;;6.40;5.05;;;20.30;99.90;;;;;;5032190;28;20026;-76
2023/06/13 04:27:13;;;;;;;5.45;5.03;;;20.10;99.90;;;;;;5015484;28;20497;-76
2023/06/13 04:29:43;;;;;;;5.70;5.22;;;20.10;99.90;;;;;;5032830;28;20439;-75
2023/06/13 04:32:13;;;;;;;5.80;5.25;;;20.10;99.90;;;;;;5031448;28;20049;-78
2023/06/13 04:34:44;;;;;;;6.03;5.53;;;20.20;99.90;;;;;;5015764;28;20386;-78
2023/06/13 04:37:11;;;;;;;6.20;5.60;;;20.20;99.90;;;;;;5031190;28;20048;-78
2023/06/13 04:39:37;;;;;;;6.55;5.72;;;20.20;99.90;;;;;;5015049;28;20041;-78
2023/06/13 04:42:04;;;;;;;6.00;5.45;;;20.10;99.90;;;;;;5032855;28;20041;-78
2023/06/13 04:44:30;;;;;;;5.85;5.25;;;20.00;99.90;;;;;;5031468;28;20033;-78
2023/06/13 04:47:01;;;;;;;6.05;5.50;;;20.10;99.90;;;;;;5031635;28;20061;-78
2023/06/13 04:49:27;;;;;;;6.38;5.75;;;20.10;99.90;;;;;;5052767;28;20044;-78
2023/06/13 04:51:54;;;;;;;7.38;5.78;;;20.10;99.90;;;;;;5037070;28;20041;-78
2023/06/13 04:54:21;;;;;;;6.30;5.70;;;20.10;99.90;;;;;;5031869;28;20060;-78
2023/06/13 04:56:49;;;;;;;6.55;5.95;;;20.10;99.90;;;;;;5031361;28;20475;-78
2023/06/13 04:59:15;;;;;;;6.57;6.00;;;20.10;99.90;;;;;;5032391;28;20029;-78
2023/06/13 05:01:43;;;;;;;6.30;5.65;;;20.10;99.90;;;;;;5030877;28;20036;-78
2023/06/13 05:04:10;;;;;;;6.22;5.70;;;20.10;99.90;;;;;;5031516;28;20033;-78
2023/06/13 05:06:37;;;;;;;6.45;5.45;;;20.30;99.90;;;;;;5030953;28;20057;-78
2023/06/13 05:09:05;;;;;;;5.72;5.25;;;20.30;99.90;;;;;;5032554;28;20482;-77
2023/06/13 05:11:31;;;;;;;7.07;5.68;;;20.10;99.90;;;;;;5032244;28;20361;-79
2023/06/13 05:13:57;;;;;;;6.32;5.72;;;20.10;99.90;;;;;;5031106;28;20033;-78
2023/06/13 05:16:29;;;;;;;6.30;5.65;;;20.00;99.90;;;;;;5031835;28;20029;-78
2023/06/13 05:19:00;;;;;;;6.30;5.70;;;20.10;99.90;;;;;;5031250;28;20041;-78
2023/06/13 05:21:28;;;;;;;5.82;5.30;;;20.20;99.90;;;;;;5031002;28;20033;-78
2023/06/13 05:23:54;;;;;;;6.82;5.18;;;20.20;99.90;;;;;;5031292;28;20037;-78
2023/06/13 05:26:21;;;;;;;5.97;5.47;;;20.20;99.90;;;;;;5030903;28;20021;-78
2023/06/13 05:28:47;;;;;;;6.50;5.82;;;20.20;99.90;;;;;;5031973;28;20048;-78
2023/06/13 05:31:13;;;;;;;8.05;6.00;;;20.20;99.90;;;;;;5046915;28;20490;-78
2023/06/13 05:33:39;;;;;;;8.30;6.40;;;20.30;99.90;;;;;;5031155;28;20033;-77
2023/06/13 05:36:05;;;;;;;6.47;5.88;;;20.30;99.90;;;;;;5030768;28;20462;-77
2023/06/13 05:38:32;;;;;;;6.03;5.50;;;20.30;99.90;;;;;;5014449;28;20117;-78
2023/06/13 05:40:58;;;;;;;6.75;6.25;;;20.40;99.90;;;;;;5030745;28;20022;-78
2023/06/13 05:43:24;;;;;;;7.25;6.55;;;20.50;99.90;;;;;;5030660;28;20045;-78
2023/06/13 05:45:50;;;;;;;7.30;6.57;;;20.40;99.90;;;;;;5013640;28;20040;-78
2023/06/13 05:48:16;;;;;;;9.07;7.93;;;20.40;99.90;;;;;;5044116;28;20401;-78
2023/06/13 05:50:42;;;;;;;7.93;7.15;;;20.30;99.90;;;;;;5050525;28;20036;-78
2023/06/13 05:53:10;;;;;;;7.30;6.80;;;20.30;99.90;;;;;;5034975;28;20431;-78
2023/06/13 05:55:36;;;;;;;7.72;6.88;;;20.40;99.90;;;;;;5034825;28;20466;-77
2023/06/13 05:58:02;;;;;;;7.07;6.38;;;20.50;99.90;;;;;;5034670;28;20033;-78
2023/06/13 06:00:28;;;;;;;8.98;7.15;;;20.50;99.90;;;;;;5017430;28;20025;-78
2023/06/13 06:02:55;;;;;;;7.07;6.47;;;20.60;99.90;;;;;;5034920;28;20497;-77
2023/06/13 06:05:21;;;;;;;8.00;7.00;;;20.60;99.90;;;;;;5035719;28;20037;-78
2023/06/13 06:07:47;;;;;;;8.25;7.55;;;20.60;99.90;;;;;;5034776;28;20033;-79
2023/06/13 06:10:13;;;;;;;8.25;7.45;;;20.70;99.90;;;;;;5034268;28;20498;-78
2023/06/13 06:12:39;;;;;;;8.15;7.32;;;20.70;99.90;;;;;;5017742;28;20068;-78
2023/06/13 06:15:06;;;;;;;8.77;7.32;;;20.70;99.90;;;;;;5034128;28;20033;-78
2023/06/13 06:17:32;;;;;;;7.85;7.10;;;20.70;99.90;;;;;;5034300;28;20100;-78
2023/06/13 06:19:58;;;;;;;8.20;7.32;;;20.70;99.90;;;;;;5034335;28;20513;-78
2023/06/13 06:22:24;;;;;;;8.18;7.40;;;20.60;99.90;;;;;;5034169;28;20036;-78
2023/06/13 06:24:50;;;;;;;9.27;7.25;;;20.60;99.90;;;;;;5017478;28;20048;-78
2023/06/13 06:27:16;;;;;;;8.32;7.53;;;20.50;99.90;;;;;;5034898;28;20040;-78
2023/06/13 06:29:42;;;;;;;8.70;7.85;;;20.50;99.90;;;;;;5050873;28;20049;-78
2023/06/13 06:32:09;;;;;;;9.30;8.50;;;20.60;99.90;;;;;;5049956;28;20510;-78
2023/06/13 06:34:35;;;;;;;7.80;7.07;;;20.50;99.90;;;;;;5067476;28;20037;-78
2023/06/13 06:37:03;;;;;;;9.25;8.07;;;20.60;99.90;;;;;;5050381;28;20033;-78
2023/06/13 06:39:29;;;;;;;8.18;6.90;;;20.50;99.90;;;;;;5034119;28;20033;-78
2023/06/13 06:41:55;;;;;;;8.43;7.72;;;20.50;99.90;;;;;;5033507;28;20029;-78
2023/06/13 06:44:21;;;;;;;8.25;7.50;;;20.60;99.90;;;;;;5034102;28;20034;-78
2023/06/13 06:46:48;;;;;;;10.18;8.10;;;20.70;99.90;;;;;;5034315;28;20057;-78
2023/06/13 06:49:16;;;;;;;8.75;7.97;;;20.80;99.90;;;;;;5053451;28;20049;-78
2023/06/13 06:51:43;;;;;;;10.13;8.90;;;20.90;99.90;;;;;;5023725;28;20474;-78
2023/06/13 06:54:10;;;;;;;10.50;9.70;;;20.90;99.90;;;;;;5034177;28;20632;-78
2023/06/13 06:56:36;;;;;;;10.60;9.73;;;20.80;99.90;;;;;;5033065;28;20029;-78
2023/06/13 06:59:03;;;;;;;10.55;9.45;;;20.70;99.90;;;;;;5033156;28;20048;-77
2023/06/13 07:01:29;;;;;;;10.35;9.30;;;20.60;99.90;;;;;;5034015;28;20046;-78
2023/06/13 07:03:55;;;;;;;9.13;8.32;;;20.40;99.90;;;;;;5033644;28;20029;-77
2023/06/13 07:06:22;;;;;;;9.70;8.90;;;20.40;99.90;;;;;;5034636;28;20036;-77
2023/06/13 07:08:48;;;;;;;10.93;9.00;;;20.50;99.90;;;;;;5033059;28;20485;-77
2023/06/13 07:11:14;;;;;;;13.10;10.68;;;20.60;99.90;;;;;;5033298;28;20038;-77
2023/06/13 07:13:40;;;;;;;9.88;8.98;;;20.60;99.90;;;;;;5033594;28;20044;-78
2023/06/13 07:16:06;;;;;;;10.05;8.93;;;20.70;99.90;;;;;;5032882;28;20037;-78
2023/06/13 07:18:32;;;;;;;11.50;10.25;;;20.80;99.90;;;;;;5033373;28;20053;-77
2023/06/13 07:20:58;;;;;;;10.18;9.18;;;20.80;99.90;;;;;;5049132;28;20033;-77
2023/06/13 07:23:24;;;;;;;10.85;9.90;;;20.90;99.90;;;;;;5016499;28;20042;-78
2023/06/13 07:25:51;;;;;;;9.13;8.32;;;20.90;99.90;;;;;;5033060;28;20470;-78
2023/06/13 07:28:17;;;;;;;11.57;10.48;;;20.80;99.90;;;;;;5050045;28;20041;-78
2023/06/13 07:30:43;;;;;;;11.70;10.60;;;20.90;99.90;;;;;;5033452;28;20049;-78
2023/06/13 07:33:09;;;;;;;10.30;9.30;;;20.90;99.90;;;;;;5034288;28;20048;-78
2023/06/13 07:35:35;;;;;;;10.10;9.30;;;20.90;99.90;;;;;;5032784;28;20492;-77
2023/06/13 07:38:01;;;;;;;10.02;9.15;;;20.90;99.90;;;;;;5032823;28;20037;-77
2023/06/13 07:40:27;;;;;;;10.20;9.27;;;21.00;99.90;;;;;;5033767;28;20036;-78
2023/06/13 07:42:54;;;;;;;9.82;8.88;;;21.10;99.90;;;;;;5016072;28;20063;-78
2023/06/13 07:45:20;;;;;;;10.55;9.52;;;21.10;99.90;;;;;;5032192;28;20041;-77
2023/06/13 07:47:46;;;;;;;10.35;9.32;;;21.10;99.90;;;;;;5039913;28;20043;-78
2023/06/13 07:50:13;;;;;;;12.43;11.30;;;21.20;99.90;;;;;;5053109;28;20044;-79
2023/06/13 07:52:39;;;;;;;11.45;10.35;;;21.40;99.90;;;;;;5032341;28;20026;-78
2023/06/13 07:55:06;;;;;;;11.05;9.95;;;21.50;99.90;;;;;;5032808;28;20029;-78
2023/06/13 07:57:32;;;;;;;10.95;10.00;;;21.70;99.90;;;;;;5015876;28;20037;-76
2023/06/13 07:59:58;;;;;;;10.02;9.10;;;21.80;99.90;;;;;;5033809;28;20032;-76
2023/06/13 08:02:25;;;;;;;11.18;10.20;;;21.70;99.90;;;;;;5031931;28;20037;-76
2023/06/13 08:04:52;;;;;;;9.45;8.63;;;21.70;99.90;;;;;;5016197;28;20033;-76
2023/06/13 08:07:18;;;;;;;10.52;9.48;;;21.70;99.90;;;;;;5031957;28;20044;-76
2023/06/13 08:09:44;;;;;;;12.15;9.95;;;21.80;99.90;;;;;;5031783;28;20177;-75
2023/06/13 08:12:10;;;;;;;10.85;9.93;;;21.90;99.90;;;;;;5032866;28;20040;-76
2023/06/13 08:14:37;;;;;;;10.57;9.52;;;21.90;99.90;;;;;;5015770;28;20048;-76
2023/06/13 08:17:03;;;;;;;10.98;9.98;;;22.00;99.90;;;;;;5014904;28;20033;-75
2023/06/13 08:19:29;;;;;;;10.43;8.88;;;22.10;99.90;;;;;;5033422;28;20041;-76
2023/06/13 08:21:55;;;;;;;10.07;8.82;;;22.20;99.90;;;;;;5031601;28;20033;-76
2023/06/13 08:24:21;;;;;;;12.57;8.55;;;22.10;99.90;;;;;;5032119;28;20025;-75
2023/06/13 08:26:49;;;;;;;10.45;9.45;;;22.10;99.90;;;;;;5031782;28;20052;-76
2023/06/13 08:29:17;;;;;;;11.20;9.80;;;22.20;99.90;;;;;;5032034;28;20052;-76
2023/06/13 08:31:44;;;;;;;10.90;9.90;;;22.30;99.90;;;;;;5032536;28;20037;-76
2023/06/13 08:34:10;;;;;;;11.05;9.95;;;22.40;99.90;;;;;;5032028;28;20036;-76
2023/06/13 08:36:36;;;;;;;11.45;10.25;;;22.50;99.90;;;;;;5031240;28;20037;-76
2023/06/13 08:39:04;;;;;;;10.90;9.88;;;22.60;99.90;;;;;;5033063;28;20032;-76
2023/06/13 08:41:30;;;;;;;11.75;10.60;;;22.80;99.90;;;;;;5032736;28;20486;-76
2023/06/13 08:43:58;;;;;;;12.50;10.35;;;22.90;99.90;;;;;;5015490;28;20034;-76
2023/06/13 08:46:26;;;;;;;10.68;9.38;;;23.00;99.90;;;;;;5014416;28;20510;-76
2023/06/13 08:48:52;;;;;;;10.05;9.07;;;23.20;99.90;;;;;;5048122;28;20367;-76
2023/06/13 08:51:20;;;;;;;11.23;9.15;;;23.20;99.90;;;;;;5042995;28;20041;-76
2023/06/13 08:53:53;;;;;;;10.38;9.45;;;23.30;99.90;;;;;;5031696;28;20018;-76
2023/06/13 08:56:23;;;;;;;11.45;10.55;;;23.30;99.90;;;;;;5031310;28;20029;-76
2023/06/13 08:58:53;;;;;;;11.48;8.50;;;23.40;99.90;;;;;;5015242;28;20021;-76
2023/06/13 09:01:19;;;;;;;10.27;9.35;;;23.50;99.90;;;;;;5031221;28;20041;-76
2023/06/13 09:03:45;;;;;;;11.55;9.48;;;23.50;99.90;;;;;;5031490;28;20041;-76
2023/06/13 09:06:11;;;;;;;13.50;11.07;;;23.60;99.90;;;;;;5014526;28;20041;-76
2023/06/13 09:08:37;;;;;;;10.82;9.80;;;23.60;99.90;;;;;;5014873;28;20059;-76
2023/06/13 09:11:03;;;;;;;12.20;10.95;;;23.50;99.90;;;;;;5014354;28;20045;-75
2023/06/13 09:13:29;;;;;;;10.55;8.68;;;23.50;99.90;;;;;;5032592;28;20470;-76
2023/06/13 09:15:55;;;;;;;9.45;8.65;;;23.70;99.90;;;;;;5031707;28;20038;-76
2023/06/13 09:18:22;;;;;;;10.68;8.63;;;23.80;99.90;;;;;;5031401;28;20025;-76
2023/06/13 09:20:48;;;;;;;10.45;9.48;;;23.80;99.90;;;;;;5013983;28;20050;-76
2023/06/13 09:23:15;;;;;;;10.07;9.27;;;23.80;99.90;;;;;;5030972;28;20034;-75
2023/06/13 09:25:41;;;;;;;11.00;9.82;;;23.90;99.90;;;;;;5030823;28;20025;-75
2023/06/13 09:28:36;;;;;;;10.27;9.25;;;24.00;99.90;;;;;;5047790;28;20466;-75
2023/06/13 09:31:02;;;;;;;10.38;9.40;;;24.00;99.90;;;;;;5046796;28;20061;-76
2023/06/13 09:33:28;;;;;;;10.18;9.27;;;24.10;99.90;;;;;;5031101;28;20390;-75
2023/06/13 09:35:54;;;;;;;9.98;9.00;;;24.10;99.90;;;;;;5030356;28;20040;-75
2023/06/13 09:38:24;;;;;;;10.90;9.90;;;24.20;99.90;;;;;;5031087;28;20021;-76
2023/06/13 09:40:55;;;;;;;10.70;9.75;;;24.10;99.90;;;;;;5030840;28;20033;-76
2023/06/13 09:43:22;;;;;;;;;;;24.00;99.90;;;;;;5031579;28;20038;-75
2023/06/13 09:45:48;;;;;;;14.43;9.60;;;23.90;99.90;;;;;;5031908;28;19913;-76
2023/06/13 09:48:14;;;;;;;9.88;8.90;;;24.00;99.90;;;;;;5050434;28;20045;-75
2023/06/13 09:50:42;;;;;;;12.38;10.50;;;23.90;99.90;;;;;;5062537;28;20052;-76
2023/06/13 09:53:08;;;;;;;10.93;9.80;;;24.00;99.90;;;;;;5063802;28;20021;-76
2023/06/13 09:55:35;;;;;;;9.23;8.43;;;24.00;99.90;;;;;;5031783;28;20029;-74
2023/06/13 09:58:02;;;;;;;9.52;8.52;;;24.10;99.90;;;;;;5031970;28;20379;-76
2023/06/13 10:00:28;;;;;;;12.07;9.48;;;24.20;99.90;;;;;;5031217;28;20040;-76
2023/06/13 10:02:55;;;;;;;10.63;9.68;;;24.30;99.90;;;;;;5063259;28;20041;-74
2023/06/13 10:05:22;;;;;;;9.32;8.50;;;24.40;99.90;;;;;;5031681;28;20030;-76
2023/06/13 10:07:48;;;;;;;14.75;10.02;;;24.40;99.90;;;;;;5047201;28;20026;-76
2023/06/13 10:10:14;;;;;;;9.75;8.57;;;24.30;99.90;;;;;;5046911;28;20397;-75
2023/06/13 10:12:45;;;;;;;9.32;8.43;;;24.30;99.90;;;;;;5030833;28;20456;-76
2023/06/13 10:15:11;;;;;;;9.63;7.78;;;24.40;99.90;;;;;;5030006;28;20056;-75
2023/06/13 10:17:40;;;;;;;8.32;7.53;;;24.60;99.90;;;;;;5030399;28;20371;-75
2023/06/13 10:20:09;;;;;;;8.75;7.95;;;24.60;99.90;;;;;;5030864;28;20025;-76
2023/06/13 10:22:36;;;;;;;10.25;9.18;;;24.70;99.90;;;;;;5030493;28;20030;-76
2023/06/13 10:25:03;;;;;;;9.50;8.60;;;24.80;99.90;;;;;;5030665;28;20030;-76
2023/06/13 10:27:29;;;;;;;9.50;8.57;;;24.80;99.90;;;;;;5030401;28;20034;-75
2023/06/13 10:30:36;;;;;;;9.63;8.70;;;24.80;99.90;;;;;;5030394;28;20052;-76
2023/06/13 10:33:17;;;;;;;9.20;8.43;;;24.80;99.90;;;;;;4988839;28;20038;-76
2023/06/13 10:36:00;;;;;;;12.18;8.25;;;25.10;99.90;;;;;;4993514;28;20030;-76
2023/06/13 10:38:38;;;;;;;10.45;8.90;;;25.00;99.90;;;;;;5009772;28;20038;-76
2023/06/13 10:41:26;;;;;;;8.60;7.70;;;25.10;99.90;;;;;;4993494;28;20087;-75
2023/06/13 10:43:55;;;;;;;10.02;9.15;;;25.20;99.90;;;;;;4979333;28;20049;-76
2023/06/13 10:46:21;;;;;;;9.33;8.47;;;25.20;99.90;;;;;;4960023;28;20122;-75
2023/06/13 10:48:49;;;;;;;9.68;8.68;;;25.20;99.90;;;;;;4976506;28;20038;-76
2023/06/13 10:51:25;;;;;;;9.57;8.60;;;25.40;99.90;;;;;;5004394;28;20427;-76
2023/06/13 10:54:03;;;;;;;8.88;7.95;;;25.40;99.90;;;;;;4961572;28;20038;-76
2023/06/13 10:56:33;;;;;;;8.88;7.93;;;25.50;99.90;;;;;;4993046;28;20057;-76
2023/06/13 10:59:02;;;;;;;9.10;8.30;;;25.60;99.90;;;;;;4977421;28;20431;-76
2023/06/13 11:01:30;;;;;;;9.43;8.50;;;25.70;99.90;;;;;;4976176;28;20035;-78
2023/06/13 11:04:19;;;;;;;9.75;7.88;;;25.90;99.90;;;;;;4961271;28;20038;-78
2023/06/13 11:06:47;;;;;;;7.88;7.15;;;26.20;99.90;;;;;;4961633;28;20046;-78
2023/06/13 11:09:18;;;;;;;8.80;7.35;;;26.50;99.90;;;;;;4996215;28;20029;-78
2023/06/13 11:12:05;;;;;;;;;;;26.70;99.90;;;;;;5033820;28;20037;-78
2023/06/13 11:14:38;;;;;;;9.02;8.18;;;26.80;99.90;;;;;;5034639;28;19913;-78
2023/06/13 11:17:04;;;;;;;8.52;7.57;;;26.90;99.90;;;;;;5032520;28;20026;-78
2023/06/13 11:19:34;;;;;;;7.80;6.95;;;26.90;99.90;;;;;;5033340;28;20478;-78
2023/06/13 11:22:02;;;;;;;7.60;6.85;;;27.00;99.90;;;;;;5033146;28;20092;-78
2023/06/13 11:24:29;;;;;;;8.15;7.05;;;27.10;99.90;;;;;;5034319;28;20021;-78
2023/06/13 11:26:56;;;;;;;8.85;7.10;;;27.10;99.90;;;;;;5033046;28;20497;-77
2023/06/13 11:29:22;;;;;;;8.35;7.22;;;27.30;99.90;;;;;;5033402;28;20025;-78
2023/06/13 11:31:52;;;;;;;9.95;7.03;;;27.50;99.90;;;;;;5033161;28;20041;-79
2023/06/13 11:34:22;;;;;;;8.75;7.28;;;27.70;99.90;;;;;;5033345;28;20022;-77
2023/06/13 11:36:48;;;;;;;8.05;7.35;;;27.80;99.90;;;;;;5032909;28;20034;-78
2023/06/13 11:39:45;;;;;;;8.68;7.20;;;27.90;99.90;;;;;;5049659;28;20040;-78
2023/06/13 11:42:11;;;;;;;7.45;6.75;;;28.10;99.90;;;;;;5062139;28;20494;-79
2023/06/13 11:44:37;;;;;;;8.23;7.32;;;28.20;99.90;;;;;;5049222;28;20025;-79
2023/06/13 11:47:04;;;;;;;8.75;7.40;;;28.30;99.90;;;;;;5033042;28;20402;-79
2023/06/13 11:49:30;;;;;;;8.57;7.78;;;28.40;99.90;;;;;;5032954;28;20034;-79
2023/06/13 11:51:56;;;;;;;11.48;6.90;;;28.50;99.90;;;;;;5015940;28;20060;-78
2023/06/13 11:54:32;;;;;;;9.35;7.25;;;28.60;99.90;;;;;;5032223;28;20021;-78
2023/06/13 11:56:58;;;;;;;10.10;7.20;;;28.60;99.90;;;;;;5016454;28;20037;-78
2023/06/13 11:59:25;;;;;;;9.88;7.30;;;28.60;99.90;;;;;;5033558;28;20029;-78
2023/06/13 12:01:54;;;;;;;8.40;7.63;;;28.70;99.90;;;;;;5031615;28;20059;-78
2023/06/13 12:04:25;;;;;;;9.00;7.63;;;28.80;99.90;;;;;;5016856;28;20033;-78
2023/06/13 12:06:52;;;;;;;8.93;7.68;;;29.00;99.90;;;;;;5032466;28;20036;-78
2023/06/13 12:09:18;;;;;;;7.68;6.97;;;29.10;99.90;;;;;;5032506;28;20040;-78
2023/06/13 12:11:45;;;;;;;9.93;7.80;;;29.10;99.90;;;;;;5031951;28;20041;-77
2023/06/13 12:14:11;;;;;;;9.13;8.32;;;29.20;99.90;;;;;;5032183;28;20025;-78
2023/06/13 12:16:38;;;;;;;8.75;7.85;;;29.30;99.90;;;;;;5031734;28;20474;-78
2023/06/13 12:19:05;;;;;;;8.60;7.80;;;29.30;99.90;;;;;;5032299;28;20032;-78
2023/06/13 12:21:32;;;;;;;9.35;8.45;;;29.40;99.90;;;;;;5032088;28;20026;-78
2023/06/13 12:24:00;;;;;;;8.55;7.85;;;29.50;99.90;;;;;;5031772;28;20044;-77
2023/06/13 12:26:28;;;;;;;8.32;7.43;;;29.60;99.90;;;;;;5032014;28;20029;-75
2023/06/13 12:28:59;;;;;;;10.75;7.88;;;29.80;99.90;;;;;;5015759;28;20044;-76
2023/06/13 12:31:33;;;;;;;8.10;7.25;;;29.90;99.90;;;;;;5031289;28;20052;-77
2023/06/13 12:34:16;;;;;;;9.63;8.77;;;30.00;99.90;;;;;;5032126;28;20025;-76
2023/06/13 12:36:45;;;;;;;9.88;9.07;;;29.80;97.80;;;;;;5016636;28;20041;-75
2023/06/13 12:39:12;;;;;;;11.38;10.38;;;29.80;98.00;;;;;;5048518;28;20378;-76
2023/06/13 12:41:42;;;;;;;8.57;7.88;;;29.90;96.60;;;;;;5064736;28;20470;-75
2023/06/13 12:44:09;;;;;;;9.27;8.38;;;30.10;98.30;;;;;;5047622;28;20025;-76
2023/06/13 12:46:38;;;;;;;9.90;8.40;;;30.30;98.60;;;;;;5047145;28;20041;-76
2023/06/13 12:49:10;;;;;;;10.98;9.48;;;30.30;98.30;;;;;;5051301;28;20033;-76